Aviation Digital Data Service (ADDS)

Output produced by METARs form (2323 UTC 23 May 2022)
found at http://www.aviationweather.gov/metar/data/
 
LYBE 232300Z 10005KT CAVOK 16/08 Q1009 NOSIG
TAF LYBE 232300Z 2400/2424 11008KT CAVOK TX30/2413Z TN15/2403Z 
     TEMPO 2403/2405 5000 SHRA SCT040TCU SCT045
       
LYNI 232300Z 11004KT 9999 -RA FEW040 18/12 Q1010 NOSIG
TAF LYNI 232300Z 2400/2424 07005KT CAVOK TX30/2414Z TN14/2404Z 
     TEMPO 2403/2405 5000 SHRA SCT040TCU 
     TEMPO 2413/2416 5000 SHRA SCT040TCU
       
LYVR 232300Z AUTO 04006KT CAVOK 15/07 Q1010
TAF LYVR 232300Z 2400/2424 07006KT CAVOK TX30/2412Z TN11/2403Z 
     BECMG 2403/2405 13012KT 
     BECMG 2407/2409 14015G25KT
       
LYKV 232300Z VRB01KT CAVOK 16/13 Q1010 NOSIG
TAF LYKV 232300Z 2400/2424 VRB02KT CAVOK TX30/2413Z TN12/2403Z 
     PROB40 
     TEMPO 2410/2417 24015G25KT 4000 TSRA SCT033CB SCT040
       
LYBT 232300Z 06006KT CAVOK 17/07 Q1009 NOSIG
TAF LYBT 232300Z 2400/2424 06005KT CAVOK TX30/2413Z TN14/2403Z 
     TEMPO 2403/2406 5000 SHRA SCT033TCU SCT040 
     BECMG 2405/2407 12010KT 
     PROB40 
     TEMPO 2412/2416 25020KT 5000 SHRA SCT040TCU SCT045